PTFLR SBCG-SBSP
Flight info
| Callsign | PTFLR |
|---|---|
| Flight time | 1h 24m |
| Altitude | 29000 |
| Route | GRD DCT PRR DCT STN |
| Aircraft | F28/M-SDF/C |
Departure
| Time | 2026-04-30 05:48 |
|---|---|
| Airport | Campo Grande Airport (SBCG) |
Arrival
| Time | 2026-04-30 07:12 |
|---|---|
| Airport | Congonhas–Deputado Freitas Nobre Airport (SBSP) |
| Time | Latitude | Longitude | Altitude | Speed | Heading |
|---|---|---|---|---|---|
| 2026-04-30 05:20 | -20.45836 | -54.67140 | 1836 ft | 0 kts | 147° |
| 2026-04-30 05:43 | -20.45837 | -54.67139 | 1836 ft | 1 kts | 147° |
| 2026-04-30 05:43 | -20.45852 | -54.67128 | 1836 ft | 4 kts | 135° |
| 2026-04-30 05:43 | -20.45864 | -54.67096 | 1836 ft | 6 kts | 95° |
| 2026-04-30 05:44 | -20.45860 | -54.67044 | 1836 ft | 8 kts | 84° |
| 2026-04-30 05:44 | -20.45853 | -54.66974 | 1836 ft | 11 kts | 84° |
| 2026-04-30 05:44 | -20.45846 | -54.66901 | 1836 ft | 9 kts | 84° |
| 2026-04-30 05:44 | -20.45841 | -54.66843 | 1836 ft | 7 kts | 84° |
| 2026-04-30 05:45 | -20.45836 | -54.66796 | 1836 ft | 6 kts | 84° |
| 2026-04-30 05:45 | -20.45839 | -54.66746 | 1836 ft | 8 kts | 110° |
| 2026-04-30 05:45 | -20.45885 | -54.66710 | 1836 ft | 10 kts | 162° |
| 2026-04-30 05:45 | -20.45956 | -54.66684 | 1836 ft | 12 kts | 160° |
| 2026-04-30 05:46 | -20.46033 | -54.66652 | 1836 ft | 11 kts | 158° |
| 2026-04-30 05:46 | -20.46093 | -54.66620 | 1836 ft | 8 kts | 146° |
| 2026-04-30 05:46 | -20.46132 | -54.66586 | 1836 ft | 6 kts | 156° |
| 2026-04-30 05:46 | -20.46165 | -54.66591 | 1835 ft | 5 kts | 221° |
| 2026-04-30 05:47 | -20.46168 | -54.66594 | 1835 ft | 1 kts | 224° |
| 2026-04-30 05:47 | -20.46303 | -54.66726 | 1834 ft | 60 kts | 221° |
| 2026-04-30 05:47 | -20.46791 | -54.67195 | 1837 ft | 127 kts | 222° |
| 2026-04-30 05:47 | -20.47581 | -54.67966 | 1975 ft | 172 kts | 220° |
| 2026-04-30 05:48 | -20.48510 | -54.68903 | 2702 ft | 190 kts | 222° |
| 2026-04-30 05:48 | -20.49473 | -54.69990 | 3244 ft | 213 kts | 222° |
| 2026-04-30 05:48 | -20.50589 | -54.71119 | 3862 ft | 227 kts | 211° |
| 2026-04-30 05:48 | -20.52073 | -54.71587 | 4514 ft | 231 kts | 177° |
| 2026-04-30 05:49 | -20.53607 | -54.71060 | 5144 ft | 239 kts | 144° |
| 2026-04-30 05:49 | -20.54671 | -54.69701 | 5769 ft | 243 kts | 112° |
| 2026-04-30 05:49 | -20.54945 | -54.67933 | 6382 ft | 244 kts | 86° |
| 2026-04-30 05:49 | -20.54835 | -54.66132 | 6900 ft | 242 kts | 83° |
| 2026-04-30 05:50 | -20.54660 | -54.64336 | 7330 ft | 245 kts | 80° |
| 2026-04-30 05:50 | -20.54456 | -54.62493 | 7519 ft | 254 kts | 81° |
| 2026-04-30 05:50 | -20.54233 | -54.60613 | 7695 ft | 256 kts | 82° |
| 2026-04-30 05:50 | -20.53998 | -54.58726 | 7822 ft | 257 kts | 81° |
| 2026-04-30 05:51 | -20.54153 | -54.56817 | 7873 ft | 263 kts | 109° |
| 2026-04-30 05:51 | -20.55043 | -54.55131 | 7971 ft | 264 kts | 124° |
| 2026-04-30 05:51 | -20.56087 | -54.53524 | 8098 ft | 263 kts | 126° |
| 2026-04-30 05:51 | -20.57151 | -54.51926 | 8201 ft | 263 kts | 126° |
| 2026-04-30 05:52 | -20.58209 | -54.50334 | 8293 ft | 263 kts | 125° |
| 2026-04-30 05:52 | -20.59238 | -54.48714 | 8405 ft | 264 kts | 121° |
| 2026-04-30 05:52 | -20.60171 | -54.47029 | 8510 ft | 263 kts | 120° |
| 2026-04-30 05:52 | -20.61091 | -54.45337 | 8607 ft | 264 kts | 120° |
| 2026-04-30 05:53 | -20.62042 | -54.43670 | 8687 ft | 263 kts | 131° |
| 2026-04-30 05:53 | -20.63305 | -54.42255 | 8778 ft | 262 kts | 135° |
| 2026-04-30 05:53 | -20.64557 | -54.40870 | 8871 ft | 262 kts | 133° |
| 2026-04-30 05:53 | -20.65772 | -54.39406 | 8949 ft | 268 kts | 130° |
| 2026-04-30 05:54 | -20.66965 | -54.37799 | 9088 ft | 285 kts | 127° |
| 2026-04-30 05:54 | -20.68164 | -54.36036 | 9274 ft | 302 kts | 126° |
| 2026-04-30 05:54 | -20.69384 | -54.34183 | 9897 ft | 303 kts | 125° |
| 2026-04-30 05:54 | -20.70491 | -54.32260 | 10447 ft | 305 kts | 119° |
| 2026-04-30 05:55 | -20.71533 | -54.30264 | 10983 ft | 308 kts | 119° |
| 2026-04-30 05:55 | -20.72567 | -54.28244 | 11520 ft | 311 kts | 118° |
| 2026-04-30 05:55 | -20.73607 | -54.26203 | 12040 ft | 315 kts | 119° |
| 2026-04-30 05:55 | -20.74658 | -54.24141 | 12612 ft | 315 kts | 119° |
| 2026-04-30 05:56 | -20.75712 | -54.22072 | 13150 ft | 318 kts | 119° |
| 2026-04-30 05:56 | -20.76767 | -54.20011 | 13674 ft | 320 kts | 119° |
| 2026-04-30 05:56 | -20.77840 | -54.17909 | 14133 ft | 323 kts | 119° |
| 2026-04-30 05:56 | -20.78924 | -54.15788 | 14575 ft | 326 kts | 119° |
| 2026-04-30 05:57 | -20.80015 | -54.13652 | 15018 ft | 329 kts | 119° |
| 2026-04-30 05:57 | -20.81115 | -54.11497 | 15442 ft | 332 kts | 119° |
| 2026-04-30 05:57 | -20.82228 | -54.09322 | 15873 ft | 335 kts | 119° |
| 2026-04-30 05:57 | -20.83350 | -54.07123 | 16288 ft | 338 kts | 119° |
| 2026-04-30 05:58 | -20.84482 | -54.04904 | 16705 ft | 340 kts | 119° |
| 2026-04-30 05:58 | -20.85621 | -54.02674 | 17122 ft | 343 kts | 119° |
| 2026-04-30 05:58 | -20.86754 | -54.00455 | 17525 ft | 346 kts | 119° |
| 2026-04-30 05:58 | -20.87912 | -53.98184 | 17920 ft | 349 kts | 119° |
| 2026-04-30 05:59 | -20.89082 | -53.95894 | 18317 ft | 352 kts | 119° |
| 2026-04-30 05:59 | -20.90259 | -53.93589 | 18657 ft | 354 kts | 119° |
| 2026-04-30 05:59 | -20.91443 | -53.91269 | 19001 ft | 357 kts | 119° |
| 2026-04-30 05:59 | -20.92635 | -53.88932 | 19340 ft | 359 kts | 119° |
| 2026-04-30 06:00 | -20.93840 | -53.86571 | 19672 ft | 361 kts | 119° |
| 2026-04-30 06:00 | -20.95048 | -53.84200 | 20001 ft | 364 kts | 119° |
| 2026-04-30 06:00 | -20.96264 | -53.81816 | 20332 ft | 366 kts | 119° |
| 2026-04-30 06:00 | -20.97488 | -53.79416 | 20646 ft | 368 kts | 119° |
| 2026-04-30 06:01 | -20.98705 | -53.77028 | 20966 ft | 370 kts | 119° |
| 2026-04-30 06:01 | -20.99940 | -53.74603 | 21286 ft | 372 kts | 119° |
| 2026-04-30 06:01 | -21.01186 | -53.72158 | 21584 ft | 375 kts | 119° |
| 2026-04-30 06:01 | -21.02442 | -53.69696 | 21886 ft | 377 kts | 119° |
| 2026-04-30 06:02 | -21.03702 | -53.67223 | 22184 ft | 380 kts | 119° |
| 2026-04-30 06:02 | -21.04972 | -53.64729 | 22481 ft | 382 kts | 119° |
| 2026-04-30 06:02 | -21.06248 | -53.62222 | 22779 ft | 384 kts | 119° |
| 2026-04-30 06:02 | -21.07529 | -53.59706 | 23065 ft | 386 kts | 119° |
| 2026-04-30 06:03 | -21.08820 | -53.57171 | 23346 ft | 388 kts | 119° |
| 2026-04-30 06:03 | -21.10117 | -53.54624 | 23622 ft | 390 kts | 119° |
| 2026-04-30 06:03 | -21.11404 | -53.52096 | 23857 ft | 392 kts | 119° |
| 2026-04-30 06:03 | -21.12710 | -53.49526 | 24094 ft | 393 kts | 119° |
| 2026-04-30 06:04 | -21.14022 | -53.46948 | 24334 ft | 395 kts | 119° |
| 2026-04-30 06:04 | -21.15338 | -53.44361 | 24566 ft | 396 kts | 119° |
| 2026-04-30 06:04 | -21.16662 | -53.41760 | 24801 ft | 398 kts | 119° |
| 2026-04-30 06:05 | -21.19320 | -53.36530 | 25238 ft | 401 kts | 119° |
| 2026-04-30 06:05 | -21.20655 | -53.33903 | 25462 ft | 402 kts | 119° |
| 2026-04-30 06:05 | -21.21996 | -53.31266 | 25677 ft | 404 kts | 119° |
| 2026-04-30 06:05 | -21.23341 | -53.28618 | 25892 ft | 405 kts | 119° |
| 2026-04-30 06:06 | -21.24690 | -53.25962 | 26102 ft | 406 kts | 119° |
| 2026-04-30 06:06 | -21.26044 | -53.23298 | 26293 ft | 408 kts | 119° |
| 2026-04-30 06:06 | -21.27403 | -53.20623 | 26502 ft | 409 kts | 119° |
| 2026-04-30 06:06 | -21.28765 | -53.17937 | 26706 ft | 411 kts | 120° |
| 2026-04-30 06:07 | -21.30136 | -53.15236 | 26825 ft | 414 kts | 120° |
| 2026-04-30 06:07 | -21.31517 | -53.12519 | 27019 ft | 415 kts | 120° |
| 2026-04-30 06:07 | -21.32899 | -53.09795 | 27211 ft | 416 kts | 119° |
| 2026-04-30 06:07 | -21.34287 | -53.07062 | 27396 ft | 418 kts | 120° |
| 2026-04-30 06:08 | -21.35676 | -53.04322 | 27578 ft | 419 kts | 119° |
| 2026-04-30 06:08 | -21.37071 | -53.01571 | 27750 ft | 420 kts | 120° |
| 2026-04-30 06:08 | -21.38468 | -52.98816 | 27942 ft | 421 kts | 119° |
| 2026-04-30 06:08 | -21.39870 | -52.96051 | 28117 ft | 422 kts | 119° |
| 2026-04-30 06:09 | -21.41274 | -52.93282 | 28285 ft | 423 kts | 119° |
| 2026-04-30 06:09 | -21.42683 | -52.90501 | 28448 ft | 425 kts | 119° |
| 2026-04-30 06:09 | -21.44095 | -52.87714 | 28611 ft | 426 kts | 119° |
| 2026-04-30 06:09 | -21.45493 | -52.84956 | 28766 ft | 427 kts | 119° |
| 2026-04-30 06:10 | -21.46915 | -52.82147 | 28867 ft | 430 kts | 120° |
| 2026-04-30 06:10 | -21.49793 | -52.76466 | 29012 ft | 436 kts | 120° |
| 2026-04-30 06:11 | -21.52722 | -52.70679 | 29022 ft | 446 kts | 120° |
| 2026-04-30 06:11 | -21.55713 | -52.64766 | 29019 ft | 454 kts | 120° |
| 2026-04-30 06:12 | -21.58756 | -52.58752 | 29020 ft | 462 kts | 120° |
| 2026-04-30 06:12 | -21.61848 | -52.52633 | 29019 ft | 469 kts | 119° |
| 2026-04-30 06:13 | -21.64986 | -52.46424 | 29018 ft | 476 kts | 120° |
| 2026-04-30 06:13 | -21.68162 | -52.40139 | 29012 ft | 481 kts | 120° |
| 2026-04-30 06:14 | -21.71372 | -52.33780 | 29012 ft | 486 kts | 120° |
| 2026-04-30 06:14 | -21.74591 | -52.27399 | 29002 ft | 490 kts | 120° |
| 2026-04-30 06:15 | -21.77857 | -52.20929 | 29009 ft | 494 kts | 120° |
| 2026-04-30 06:15 | -21.81124 | -52.14447 | 29023 ft | 491 kts | 120° |
| 2026-04-30 06:16 | -21.84371 | -52.08004 | 29011 ft | 488 kts | 120° |
| 2026-04-30 06:16 | -21.87608 | -52.01580 | 29006 ft | 488 kts | 120° |
| 2026-04-30 06:17 | -21.90839 | -51.95164 | 29009 ft | 487 kts | 120° |
| 2026-04-30 06:17 | -21.94067 | -51.88749 | 29013 ft | 487 kts | 120° |
| 2026-04-30 06:18 | -21.97275 | -51.82374 | 29013 ft | 486 kts | 120° |
| 2026-04-30 06:18 | -22.00488 | -51.75985 | 29010 ft | 484 kts | 120° |
| 2026-04-30 06:19 | -22.03691 | -51.69612 | 29012 ft | 483 kts | 120° |
| 2026-04-30 06:19 | -22.06873 | -51.63250 | 29016 ft | 481 kts | 119° |
| 2026-04-30 06:20 | -22.09998 | -51.56877 | 29021 ft | 480 kts | 119° |
| 2026-04-30 06:20 | -22.13102 | -51.50508 | 29045 ft | 479 kts | 119° |
| 2026-04-30 06:21 | -22.16198 | -51.44144 | 29049 ft | 479 kts | 119° |
| 2026-04-30 06:21 | -22.18768 | -51.37535 | 29050 ft | 478 kts | 111° |
| 2026-04-30 06:22 | -22.20916 | -51.30745 | 29046 ft | 477 kts | 108° |
| 2026-04-30 06:22 | -22.23007 | -51.23949 | 29036 ft | 477 kts | 109° |
| 2026-04-30 06:23 | -22.25104 | -51.17161 | 29027 ft | 476 kts | 109° |
| 2026-04-30 06:23 | -22.27194 | -51.10381 | 29027 ft | 476 kts | 109° |
| 2026-04-30 06:24 | -22.29284 | -51.03597 | 29032 ft | 476 kts | 109° |
| 2026-04-30 06:24 | -22.31020 | -50.97958 | 29023 ft | 476 kts | 109° |
| 2026-04-30 06:25 | -22.33448 | -50.90075 | 29024 ft | 476 kts | 109° |
| 2026-04-30 06:25 | -22.35537 | -50.83289 | 29021 ft | 476 kts | 109° |
| 2026-04-30 06:26 | -22.37627 | -50.76499 | 29030 ft | 476 kts | 109° |
| 2026-04-30 06:26 | -22.39362 | -50.70859 | 29032 ft | 476 kts | 109° |
| 2026-04-30 06:27 | -22.41464 | -50.64024 | 29031 ft | 476 kts | 109° |
| 2026-04-30 06:27 | -22.43537 | -50.57278 | 29029 ft | 476 kts | 109° |
| 2026-04-30 06:28 | -22.45629 | -50.50475 | 29029 ft | 477 kts | 109° |
| 2026-04-30 06:28 | -22.47718 | -50.43674 | 29028 ft | 477 kts | 109° |
| 2026-04-30 06:29 | -22.49808 | -50.36869 | 29026 ft | 477 kts | 109° |
| 2026-04-30 06:29 | -22.51902 | -50.30054 | 29029 ft | 477 kts | 109° |
| 2026-04-30 06:30 | -22.53989 | -50.23247 | 29027 ft | 477 kts | 108° |
| 2026-04-30 06:30 | -22.56224 | -50.16501 | 29023 ft | 476 kts | 112° |
| 2026-04-30 06:31 | -22.58722 | -50.09870 | 29032 ft | 476 kts | 113° |
| 2026-04-30 06:31 | -22.60895 | -50.03105 | 29028 ft | 476 kts | 108° |
| 2026-04-30 06:32 | -22.62850 | -49.96260 | 29020 ft | 476 kts | 107° |
| 2026-04-30 06:32 | -22.64780 | -49.89455 | 29027 ft | 476 kts | 107° |
| 2026-04-30 06:33 | -22.66723 | -49.82614 | 29027 ft | 475 kts | 107° |
| 2026-04-30 06:33 | -22.68682 | -49.75719 | 29031 ft | 476 kts | 107° |
| 2026-04-30 06:34 | -22.70615 | -49.68914 | 29029 ft | 476 kts | 107° |
| 2026-04-30 06:34 | -22.72562 | -49.62061 | 29027 ft | 476 kts | 107° |
| 2026-04-30 06:35 | -22.74507 | -49.55205 | 29031 ft | 476 kts | 107° |
| 2026-04-30 06:35 | -22.76451 | -49.48348 | 29032 ft | 476 kts | 107° |
| 2026-04-30 06:36 | -22.78397 | -49.41490 | 29029 ft | 476 kts | 107° |
| 2026-04-30 06:36 | -22.80341 | -49.34627 | 29031 ft | 476 kts | 107° |
| 2026-04-30 06:37 | -22.82281 | -49.27758 | 29036 ft | 476 kts | 107° |
| 2026-04-30 06:37 | -22.84225 | -49.20887 | 29039 ft | 476 kts | 107° |
| 2026-04-30 06:38 | -22.86167 | -49.14021 | 29042 ft | 476 kts | 107° |
| 2026-04-30 06:38 | -22.88105 | -49.07147 | 29035 ft | 476 kts | 107° |
| 2026-04-30 06:39 | -22.90046 | -49.00280 | 29045 ft | 476 kts | 107° |
| 2026-04-30 06:39 | -22.91976 | -48.93409 | 29054 ft | 476 kts | 107° |
| 2026-04-30 06:40 | -22.93887 | -48.86538 | 28856 ft | 474 kts | 107° |
| 2026-04-30 06:40 | -22.94836 | -48.83116 | 28488 ft | 473 kts | 107° |
| 2026-04-30 06:40 | -22.95783 | -48.79697 | 28116 ft | 473 kts | 107° |
| 2026-04-30 06:40 | -22.96724 | -48.76288 | 27743 ft | 472 kts | 107° |
| 2026-04-30 06:41 | -22.97666 | -48.72877 | 27384 ft | 471 kts | 107° |
| 2026-04-30 06:41 | -22.98593 | -48.69515 | 27036 ft | 470 kts | 107° |
| 2026-04-30 06:41 | -22.99527 | -48.66121 | 26690 ft | 469 kts | 107° |
| 2026-04-30 06:41 | -23.00472 | -48.62695 | 26357 ft | 467 kts | 107° |
| 2026-04-30 06:42 | -23.01394 | -48.59373 | 26034 ft | 465 kts | 107° |
| 2026-04-30 06:42 | -23.02327 | -48.56012 | 25727 ft | 464 kts | 107° |
| 2026-04-30 06:42 | -23.03251 | -48.52657 | 25416 ft | 463 kts | 107° |
| 2026-04-30 06:42 | -23.04167 | -48.49313 | 25115 ft | 461 kts | 107° |
| 2026-04-30 06:43 | -23.05077 | -48.45981 | 24822 ft | 460 kts | 107° |
| 2026-04-30 06:43 | -23.05985 | -48.42658 | 24522 ft | 458 kts | 107° |
| 2026-04-30 06:43 | -23.06901 | -48.39347 | 24236 ft | 457 kts | 107° |
| 2026-04-30 06:43 | -23.07819 | -48.36052 | 23953 ft | 455 kts | 107° |
| 2026-04-30 06:44 | -23.08734 | -48.32769 | 23658 ft | 454 kts | 107° |
| 2026-04-30 06:44 | -23.09647 | -48.29496 | 23330 ft | 452 kts | 107° |
| 2026-04-30 06:44 | -23.10554 | -48.26231 | 23002 ft | 451 kts | 107° |
| 2026-04-30 06:44 | -23.11452 | -48.22978 | 22690 ft | 449 kts | 107° |
| 2026-04-30 06:45 | -23.12350 | -48.19737 | 22367 ft | 447 kts | 107° |
| 2026-04-30 06:45 | -23.13246 | -48.16507 | 22079 ft | 445 kts | 107° |
| 2026-04-30 06:45 | -23.14123 | -48.13287 | 21774 ft | 444 kts | 107° |
| 2026-04-30 06:45 | -23.14986 | -48.10071 | 21480 ft | 443 kts | 107° |
| 2026-04-30 06:46 | -23.15839 | -48.06862 | 21190 ft | 440 kts | 107° |
| 2026-04-30 06:46 | -23.16680 | -48.03677 | 20907 ft | 438 kts | 107° |
| 2026-04-30 06:46 | -23.17389 | -48.00464 | 20607 ft | 436 kts | 100° |
| 2026-04-30 06:46 | -23.17856 | -47.97217 | 20334 ft | 434 kts | 98° |
| 2026-04-30 06:47 | -23.18250 | -47.94018 | 20071 ft | 432 kts | 97° |
| 2026-04-30 06:47 | -23.18620 | -47.90786 | 19797 ft | 430 kts | 97° |
| 2026-04-30 06:47 | -23.18975 | -47.87569 | 19530 ft | 428 kts | 97° |
| 2026-04-30 06:47 | -23.19318 | -47.84362 | 19272 ft | 426 kts | 97° |
| 2026-04-30 06:48 | -23.19652 | -47.81165 | 19003 ft | 425 kts | 97° |
| 2026-04-30 06:48 | -23.19980 | -47.77986 | 18754 ft | 422 kts | 96° |
| 2026-04-30 06:48 | -23.20305 | -47.74818 | 18503 ft | 421 kts | 96° |
| 2026-04-30 06:48 | -23.20619 | -47.71706 | 18224 ft | 407 kts | 96° |
| 2026-04-30 06:49 | -23.20919 | -47.68696 | 17915 ft | 394 kts | 96° |
| 2026-04-30 06:49 | -23.21205 | -47.65777 | 17598 ft | 384 kts | 97° |
| 2026-04-30 06:49 | -23.21477 | -47.62925 | 17268 ft | 375 kts | 96° |
| 2026-04-30 06:49 | -23.21740 | -47.60138 | 16936 ft | 367 kts | 96° |
| 2026-04-30 06:50 | -23.21995 | -47.57400 | 16600 ft | 361 kts | 96° |
| 2026-04-30 06:50 | -23.22243 | -47.54706 | 16278 ft | 356 kts | 96° |
| 2026-04-30 06:50 | -23.22485 | -47.52047 | 15953 ft | 351 kts | 96° |
| 2026-04-30 06:50 | -23.22720 | -47.49422 | 15632 ft | 347 kts | 96° |
| 2026-04-30 06:51 | -23.22950 | -47.46826 | 15314 ft | 343 kts | 96° |
| 2026-04-30 06:51 | -23.23173 | -47.44261 | 14998 ft | 337 kts | 96° |
| 2026-04-30 06:51 | -23.23387 | -47.41749 | 14677 ft | 331 kts | 96° |
| 2026-04-30 06:51 | -23.23594 | -47.39276 | 14358 ft | 325 kts | 96° |
| 2026-04-30 06:52 | -23.23794 | -47.36848 | 14035 ft | 320 kts | 96° |
| 2026-04-30 06:52 | -23.23986 | -47.34452 | 13686 ft | 316 kts | 96° |
| 2026-04-30 06:52 | -23.24175 | -47.32093 | 13326 ft | 312 kts | 96° |
| 2026-04-30 06:52 | -23.24363 | -47.29760 | 12969 ft | 308 kts | 96° |
| 2026-04-30 06:53 | -23.24552 | -47.27458 | 12619 ft | 304 kts | 96° |
| 2026-04-30 06:53 | -23.24741 | -47.25186 | 12270 ft | 300 kts | 96° |
| 2026-04-30 06:53 | -23.24932 | -47.22935 | 11937 ft | 297 kts | 96° |
| 2026-04-30 06:53 | -23.25123 | -47.20712 | 11602 ft | 294 kts | 96° |
| 2026-04-30 06:54 | -23.25324 | -47.18513 | 11262 ft | 291 kts | 99° |
| 2026-04-30 06:54 | -23.26005 | -47.16482 | 10902 ft | 285 kts | 122° |
| 2026-04-30 06:54 | -23.27070 | -47.14681 | 10582 ft | 281 kts | 127° |
| 2026-04-30 06:54 | -23.28249 | -47.12999 | 10268 ft | 278 kts | 131° |
| 2026-04-30 06:55 | -23.29488 | -47.11393 | 9947 ft | 276 kts | 132° |
| 2026-04-30 06:55 | -23.30743 | -47.09826 | 9590 ft | 274 kts | 133° |
| 2026-04-30 06:55 | -23.32001 | -47.08278 | 9246 ft | 272 kts | 133° |
| 2026-04-30 06:55 | -23.33288 | -47.06774 | 8921 ft | 271 kts | 135° |
| 2026-04-30 06:56 | -23.34596 | -47.05305 | 8588 ft | 269 kts | 135° |
| 2026-04-30 06:56 | -23.35909 | -47.03858 | 8253 ft | 268 kts | 136° |
| 2026-04-30 06:56 | -23.37203 | -47.02445 | 7932 ft | 267 kts | 136° |
| 2026-04-30 06:56 | -23.38515 | -47.01020 | 7610 ft | 266 kts | 136° |
| 2026-04-30 06:57 | -23.39833 | -46.99612 | 7283 ft | 265 kts | 137° |
| 2026-04-30 06:57 | -23.41158 | -46.98222 | 6970 ft | 264 kts | 137° |
| 2026-04-30 06:57 | -23.42494 | -46.96857 | 6678 ft | 263 kts | 140° |
| 2026-04-30 06:57 | -23.43884 | -46.95571 | 6345 ft | 262 kts | 141° |
| 2026-04-30 06:58 | -23.45285 | -46.94318 | 6102 ft | 257 kts | 142° |
| 2026-04-30 06:58 | -23.46646 | -46.93114 | 6021 ft | 246 kts | 142° |
| 2026-04-30 06:58 | -23.47941 | -46.91968 | 5996 ft | 233 kts | 142° |
| 2026-04-30 06:58 | -23.49173 | -46.90881 | 5982 ft | 221 kts | 142° |
| 2026-04-30 06:59 | -23.50335 | -46.89853 | 5952 ft | 209 kts | 143° |
| 2026-04-30 06:59 | -23.51429 | -46.88886 | 5935 ft | 196 kts | 142° |
| 2026-04-30 06:59 | -23.52464 | -46.87970 | 5958 ft | 190 kts | 142° |
| 2026-04-30 06:59 | -23.53484 | -46.87064 | 6004 ft | 189 kts | 142° |
| 2026-04-30 07:00 | -23.54487 | -46.86171 | 6021 ft | 184 kts | 142° |
| 2026-04-30 07:00 | -23.55474 | -46.85293 | 6031 ft | 183 kts | 142° |
| 2026-04-30 07:00 | -23.56459 | -46.84417 | 6041 ft | 183 kts | 142° |
| 2026-04-30 07:00 | -23.57445 | -46.83541 | 6040 ft | 182 kts | 142° |
| 2026-04-30 07:01 | -23.58430 | -46.82672 | 6051 ft | 182 kts | 144° |
| 2026-04-30 07:01 | -23.59552 | -46.82091 | 6041 ft | 179 kts | 164° |
| 2026-04-30 07:01 | -23.60732 | -46.81683 | 6051 ft | 178 kts | 167° |
| 2026-04-30 07:01 | -23.61903 | -46.81312 | 6053 ft | 177 kts | 167° |
| 2026-04-30 07:02 | -23.63091 | -46.80946 | 6057 ft | 177 kts | 168° |
| 2026-04-30 07:02 | -23.64278 | -46.80574 | 6057 ft | 178 kts | 166° |
| 2026-04-30 07:02 | -23.65296 | -46.79813 | 6050 ft | 183 kts | 124° |
| 2026-04-30 07:02 | -23.65611 | -46.78503 | 6063 ft | 180 kts | 81° |
| 2026-04-30 07:03 | -23.65084 | -46.77336 | 6067 ft | 170 kts | 34° |
| 2026-04-30 07:03 | -23.64042 | -46.76932 | 6085 ft | 157 kts | 348° |
| 2026-04-30 07:03 | -23.63105 | -46.77403 | 6092 ft | 147 kts | 316° |
| 2026-04-30 07:03 | -23.62341 | -46.78144 | 6090 ft | 147 kts | 313° |
| 2026-04-30 07:04 | -23.61617 | -46.78943 | 6086 ft | 149 kts | 313° |
| 2026-04-30 07:04 | -23.60849 | -46.79710 | 6080 ft | 151 kts | 316° |
| 2026-04-30 07:04 | -23.60050 | -46.80459 | 6074 ft | 152 kts | 317° |
| 2026-04-30 07:04 | -23.59238 | -46.81206 | 6073 ft | 153 kts | 317° |
| 2026-04-30 07:05 | -23.57631 | -46.82764 | 6058 ft | 156 kts | 315° |
| 2026-04-30 07:05 | -23.56824 | -46.83558 | 6046 ft | 158 kts | 325° |
| 2026-04-30 07:05 | -23.55759 | -46.83744 | 6027 ft | 165 kts | 13° |
| 2026-04-30 07:06 | -23.54749 | -46.83052 | 5895 ft | 178 kts | 35° |
| 2026-04-30 07:06 | -23.53786 | -46.82170 | 5658 ft | 184 kts | 37° |
| 2026-04-30 07:06 | -23.52815 | -46.81237 | 5383 ft | 186 kts | 38° |
| 2026-04-30 07:06 | -23.51863 | -46.80299 | 5139 ft | 183 kts | 39° |
| 2026-04-30 07:07 | -23.50925 | -46.79363 | 4864 ft | 182 kts | 39° |
| 2026-04-30 07:07 | -23.49999 | -46.78430 | 4566 ft | 181 kts | 43° |
| 2026-04-30 07:07 | -23.49468 | -46.77213 | 4291 ft | 183 kts | 79° |
| 2026-04-30 07:07 | -23.49317 | -46.75888 | 4222 ft | 167 kts | 83° |
| 2026-04-30 07:08 | -23.49415 | -46.74732 | 4071 ft | 146 kts | 118° |
| 2026-04-30 07:08 | -23.50159 | -46.74034 | 4037 ft | 138 kts | 150° |
| 2026-04-30 07:08 | -23.50996 | -46.73523 | 4136 ft | 138 kts | 152° |
| 2026-04-30 07:08 | -23.51857 | -46.73017 | 4188 ft | 143 kts | 152° |
| 2026-04-30 07:09 | -23.52735 | -46.72478 | 4216 ft | 147 kts | 150° |
| 2026-04-30 07:09 | -23.53622 | -46.71897 | 4236 ft | 150 kts | 149° |
| 2026-04-30 07:09 | -23.54515 | -46.71287 | 4234 ft | 153 kts | 148° |
| 2026-04-30 07:09 | -23.55419 | -46.70657 | 4177 ft | 158 kts | 148° |
| 2026-04-30 07:10 | -23.56363 | -46.69998 | 3963 ft | 163 kts | 147° |
| 2026-04-30 07:10 | -23.57312 | -46.69341 | 3768 ft | 158 kts | 147° |
| 2026-04-30 07:10 | -23.58224 | -46.68712 | 3560 ft | 153 kts | 147° |
| 2026-04-30 07:10 | -23.59087 | -46.68114 | 3347 ft | 144 kts | 146° |
| 2026-04-30 07:11 | -23.59977 | -46.67496 | 3160 ft | 156 kts | 146° |
| 2026-04-30 07:11 | -23.60879 | -46.66876 | 2937 ft | 149 kts | 147° |
| 2026-04-30 07:11 | -23.61751 | -46.66284 | 2694 ft | 148 kts | 146° |
| 2026-04-30 07:11 | -23.62558 | -46.65719 | 2603 ft | 119 kts | 147° |
| 2026-04-30 07:12 | -23.63086 | -46.65358 | 2607 ft | 53 kts | 147° |
| 2026-04-30 07:12 | -23.63236 | -46.65251 | 2607 ft | 17 kts | 148° |
| 2026-04-30 07:12 | -23.63278 | -46.65222 | 2606 ft | 6 kts | 147° |
| 2026-04-30 07:12 | -23.63329 | -46.65200 | 2605 ft | 8 kts | 174° |
| 2026-04-30 07:13 | -23.63387 | -46.65214 | 2602 ft | 7 kts | 209° |
| 2026-04-30 07:13 | -23.63396 | -46.65221 | 2601 ft | 3 kts | 217° |
| 2026-04-30 07:13 | -23.63418 | -46.65249 | 2599 ft | 2 kts | 262° |
| 2026-04-30 07:13 | -23.63396 | -46.65286 | 2599 ft | 9 kts | 326° |
| 2026-04-30 07:14 | -23.63330 | -46.65331 | 2599 ft | 13 kts | 327° |
| 2026-04-30 07:14 | -23.63255 | -46.65383 | 2599 ft | 12 kts | 327° |
| 2026-04-30 07:14 | -23.63191 | -46.65427 | 2599 ft | 10 kts | 327° |
| 2026-04-30 07:14 | -23.63137 | -46.65465 | 2599 ft | 8 kts | 327° |
| 2026-04-30 07:15 | -23.63092 | -46.65496 | 2599 ft | 7 kts | 327° |
| 2026-04-30 07:15 | -23.63042 | -46.65518 | 2600 ft | 8 kts | 353° |
| 2026-04-30 07:15 | -23.62983 | -46.65535 | 2601 ft | 9 kts | 332° |
| 2026-04-30 07:15 | -23.62929 | -46.65572 | 2600 ft | 9 kts | 319° |
| 2026-04-30 07:16 | -23.62941 | -46.65639 | 2595 ft | 11 kts | 237° |
| 2026-04-30 07:16 | -23.62982 | -46.65709 | 2598 ft | 11 kts | 237° |
| 2026-04-30 07:16 | -23.63019 | -46.65773 | 2591 ft | 8 kts | 237° |
| 2026-04-30 07:16 | -23.63046 | -46.65818 | 2598 ft | 7 kts | 237° |
| 2026-04-30 07:17 | -23.63074 | -46.65848 | 2594 ft | 5 kts | 190° |
| 2026-04-30 07:17 | -23.63093 | -46.65848 | 2598 ft | 0 kts | 178° |